Time;durP1;ratioP1;P1;durP2;ratioP2;P2;SDS_P1;SDS_P2;PMS_P1;PMS_P2;Temp;Humidity;BMP_temperature;BMP_pressure;BME280_temperature;BME280_humidity;BME280_pressure;Samples;Min_cycle;Max_cycle;Signal;HPM_P1;HPM_P2
2021/11/06 00:00:40;;;;;;;12.68;2.53;;;8.80;99.90;;;7.31;100.00;101046.59;4833343;28;20067;-82
2021/11/06 00:03:06;;;;;;;6.22;2.25;;;8.80;99.90;;;7.32;100.00;101045.66;4895133;28;20074;-82
2021/11/06 00:05:39;;;;;;;8.43;2.25;;;8.80;99.90;;;7.32;100.00;101043.94;4889633;28;20081;-82
2021/11/06 00:08:06;;;;;;;6.40;1.83;;;;;;;7.33;100.00;101048.25;4865031;28;20075;-81
2021/11/06 00:10:32;;;;;;;8.43;2.90;;;8.80;99.90;;;7.34;100.00;101056.97;4909113;28;20488;-83
2021/11/06 00:12:58;;;;;;;8.52;2.33;;;8.80;99.90;;;7.33;100.00;101055.25;4828198;28;20069;-83
2021/11/06 00:15:24;;;;;;;6.13;2.22;;;8.80;99.90;;;7.31;100.00;101052.69;4845717;29;20083;-82
2021/11/06 00:17:55;;;;;;;5.05;2.50;;;8.80;99.90;;;7.37;100.00;101049.03;4865081;28;20466;-84
2021/11/06 00:20:22;;;;;;;9.30;2.78;;;8.80;99.90;;;7.32;100.00;101040.44;4869055;28;20099;-83
2021/11/06 00:22:48;;;;;;;9.20;2.58;;;8.80;99.90;;;7.36;100.00;101052.53;4879418;28;20428;-82
2021/11/06 00:25:15;;;;;;;10.20;2.40;;;8.80;99.90;;;7.34;100.00;101047.38;4875499;28;20107;-82
2021/11/06 00:27:47;;;;;;;5.40;2.50;;;8.80;99.90;;;7.34;100.00;101051.72;4839994;28;20417;-83
2021/11/06 00:30:13;;;;;;;7.80;2.70;;;8.80;99.90;;;7.39;100.00;101055.09;4850870;28;20058;-82
2021/11/06 00:32:40;;;;;;;5.28;2.80;;;8.80;99.90;;;7.33;100.00;101055.25;4871795;28;20152;-84
2021/11/06 00:35:08;;;;;;;17.70;3.28;;;8.80;99.90;;;7.35;100.00;101059.56;4844471;28;20090;-82
2021/11/06 00:37:41;;;;;;;7.43;3.15;;;8.80;99.90;;;7.31;100.00;101057.91;4870495;28;20110;-82
2021/11/06 00:40:11;;;;;;;6.38;2.95;;;8.80;99.90;;;7.28;100.00;101050.16;4862871;28;20058;-83
2021/11/06 00:45:31;;;;;;;9.82;3.45;;;8.70;99.90;;;7.23;100.00;101057.25;4995565;28;20986;-83
2021/11/06 00:47:57;;;;;;;14.10;4.03;;;8.70;99.90;;;7.23;100.00;101059.03;4935188;28;20097;-83
2021/11/06 00:50:23;;;;;;;9.13;3.75;;;;;;;7.21;100.00;101055.59;4930673;28;20104;-83
2021/11/06 00:52:53;;;;;;;13.35;3.20;;;8.70;99.90;;;7.16;100.00;101055.72;4975167;28;20134;-84
2021/11/06 00:55:21;;;;;;;12.30;4.07;;;8.60;99.90;;;7.16;100.00;101056.56;4957354;28;20060;-83
2021/11/06 00:57:48;;;;;;;7.75;3.67;;;8.60;99.90;;;7.18;100.00;101061.78;4951529;28;20563;-83
2021/11/06 01:00:20;;;;;;;14.25;3.67;;;8.70;99.90;;;7.18;100.00;101062.63;5004370;28;20154;-83
2021/11/06 01:02:48;;;;;;;12.43;3.33;;;8.70;99.90;;;7.17;100.00;101062.66;4920648;28;20035;-82
2021/11/06 01:05:16;;;;;;;16.27;3.97;;;8.60;99.90;;;7.14;100.00;101055.75;4941108;28;20076;-82
2021/11/06 01:07:51;;;;;;;11.35;3.38;;;8.60;99.90;;;7.17;100.00;101067.91;4923459;28;20159;-83
2021/11/06 01:10:19;;;;;;;7.03;3.20;;;8.60;99.90;;;7.15;100.00;101067.97;4882067;28;20060;-83
2021/11/06 01:12:48;;;;;;;5.18;2.67;;;8.60;99.90;;;7.19;100.00;101074.84;4949588;28;20600;-82
2021/11/06 01:15:17;;;;;;;8.18;3.10;;;8.70;99.90;;;7.24;100.00;101071.25;4866769;28;20064;-83
2021/11/06 01:17:44;;;;;;;8.60;2.70;;;8.70;99.90;;;7.26;100.00;101066.81;4954119;28;20215;-82
2021/11/06 01:20:10;;;;;;;10.43;2.97;;;8.70;99.90;;;7.27;100.00;101069.38;4902898;28;20076;-84
2021/11/06 01:22:40;;;;;;;14.00;2.75;;;8.70;99.90;;;7.28;100.00;101067.59;4887828;28;20100;-83
2021/11/06 01:25:10;;;;;;;7.07;2.83;;;8.80;99.90;;;7.29;100.00;101066.72;4914388;28;20071;-85
2021/11/06 01:27:36;;;;;;;7.55;2.40;;;;;;;7.24;100.00;101072.09;4897457;28;20072;-83
2021/11/06 01:30:14;;;;;;;5.47;2.45;;;8.70;99.90;;;7.25;100.00;101063.31;4932756;28;20090;-83
2021/11/06 01:32:41;;;;;;;6.07;2.45;;;8.70;99.90;;;7.21;100.00;101053.81;4925666;28;20060;-83
2021/11/06 01:35:09;;;;;;;7.13;2.30;;;8.60;99.90;;;7.19;100.00;101056.50;4967553;28;20088;-83
2021/11/06 01:37:38;;;;;;;7.75;3.40;;;8.60;99.90;;;7.14;100.00;101055.75;4931737;28;20056;-83
2021/11/06 01:40:10;;;;;;;11.02;2.63;;;8.60;99.90;;;7.13;100.00;101061.06;4944330;28;20062;-83
2021/11/06 01:42:45;;;;;;;11.25;2.20;;;8.50;99.90;;;7.12;100.00;101057.56;4950956;28;20044;-83
2021/11/06 01:45:16;;;;;;;8.68;2.15;;;8.60;99.90;;;7.12;100.00;101062.78;4926236;28;20195;-83
2021/11/06 01:47:47;;;;;;;10.57;2.65;;;8.60;99.90;;;7.13;100.00;101063.66;4957125;28;20060;-83
2021/11/06 01:50:15;;;;;;;6.72;2.70;;;8.60;99.90;;;7.12;100.00;101070.66;4916157;28;20106;-84
2021/11/06 01:52:42;;;;;;;6.43;3.00;;;8.60;99.90;;;7.13;100.00;101074.16;4940629;28;20540;-82
2021/11/06 01:55:09;;;;;;;6.22;2.90;;;8.70;99.90;;;7.20;100.00;101080.94;4951591;28;20437;-82
2021/11/06 01:57:45;;;;;;;6.68;2.85;;;8.70;99.90;;;7.19;100.00;101072.22;4939937;28;20155;-84
2021/11/06 02:00:21;;;;;;;6.35;2.60;;;8.60;99.90;;;7.19;100.00;101063.47;4948938;28;20058;-83
2021/11/06 02:02:48;;;;;;;7.95;2.85;;;8.60;99.90;;;7.19;100.00;101076.56;4956948;28;20070;-83
2021/11/06 02:05:15;;;;;;;10.88;3.10;;;8.70;99.90;;;7.21;100.00;101071.31;4907268;28;20076;-83
2021/11/06 02:07:47;;;;;;;8.57;4.10;;;8.70;99.90;;;7.22;100.00;101071.28;4936628;28;20064;-82
2021/11/06 02:10:14;;;;;;;15.82;3.38;;;8.70;99.90;;;7.23;100.00;101069.50;4918436;28;20080;-83
2021/11/06 02:12:43;;;;;;;10.00;3.78;;;8.70;99.90;;;7.19;100.00;101069.59;4919637;28;20060;-83
2021/11/06 02:15:14;;;;;;;9.40;3.10;;;8.70;99.90;;;7.19;100.00;101074.84;4963917;28;20543;-83
2021/11/06 02:17:42;;;;;;;7.00;3.42;;;8.70;99.90;;;7.19;100.00;101076.56;4947445;28;20027;-82
2021/11/06 02:20:09;;;;;;;8.52;3.00;;;8.70;99.90;;;7.15;100.00;101069.72;4906435;28;20080;-83
2021/11/06 02:22:35;;;;;;;8.15;3.03;;;8.60;99.90;;;7.15;100.00;101072.34;4913045;28;20063;-83
2021/11/06 02:25:10;;;;;;;8.18;3.25;;;8.60;99.90;;;7.14;100.00;101071.47;4944971;28;20452;-82
2021/11/06 02:27:38;;;;;;;10.93;3.53;;;8.60;99.90;;;7.12;100.00;101067.19;4960683;28;20190;-85
2021/11/06 02:30:08;;;;;;;11.65;3.92;;;8.60;99.90;;;7.13;100.00;101075.00;4979064;28;20125;-83
2021/11/06 02:32:34;;;;;;;9.98;3.97;;;8.60;99.90;;;7.14;100.00;101078.47;4990449;28;20185;-83
2021/11/06 02:35:01;;;;;;;11.95;3.67;;;8.60;99.90;;;7.17;100.00;101079.25;4914971;28;20058;-83
2021/11/06 02:37:26;;;;;;;13.15;3.28;;;8.60;99.90;;;7.17;100.00;101074.03;4898199;28;20602;-83
2021/11/06 02:39:53;;;;;;;9.80;3.28;;;8.60;99.90;;;7.16;100.00;101067.03;4907377;28;20132;-83
2021/11/06 02:42:19;;;;;;;10.27;3.70;;;8.70;99.90;;;7.18;100.00;101051.31;4881882;28;20422;-83
2021/11/06 02:44:48;;;;;;;10.73;3.63;;;8.60;99.90;;;7.18;100.00;101061.78;4893872;28;20104;-85
2021/11/06 02:47:14;;;;;;;9.65;4.18;;;8.70;99.90;;;7.21;100.00;101061.69;4904430;28;20070;-82
2021/11/06 02:49:44;;;;;;;11.57;4.40;;;8.70;99.90;;;7.22;100.00;101057.31;4905654;28;20035;-84
2021/11/06 02:52:10;;;;;;;7.88;3.97;;;8.70;99.90;;;7.23;100.00;101049.41;4931618;28;20570;-82
2021/11/06 02:54:36;;;;;;;5.45;3.40;;;8.70;99.90;;;7.25;100.00;101050.22;4921460;28;20069;-84
2021/11/06 02:57:03;;;;;;;9.48;3.75;;;8.70;99.90;;;7.29;100.00;101062.34;4921453;28;20102;-83
2021/11/06 02:59:31;;;;;;;13.43;3.30;;;8.80;99.90;;;7.30;100.00;101057.94;4906908;28;20083;-84
2021/11/06 03:01:57;;;;;;;7.45;3.50;;;8.80;99.90;;;7.32;100.00;101053.53;4903609;28;20080;-83
2021/11/06 03:04:23;;;;;;;8.55;3.35;;;8.80;99.90;;;7.34;100.00;101062.19;4898269;28;20064;-84
2021/11/06 03:06:49;;;;;;;7.25;3.20;;;;;;;7.34;100.00;101054.34;4916246;28;20038;-83
2021/11/06 03:09:17;;;;;;;6.25;3.53;;;8.80;99.90;;;7.31;100.00;101046.59;4917062;28;20409;-82
2021/11/06 03:11:44;;;;;;;5.45;3.33;;;;;;;7.32;100.00;101048.28;4966752;28;20054;-84
2021/11/06 03:14:13;;;;;;;7.68;3.03;;;8.80;99.90;;;7.31;100.00;101051.81;4941303;28;20082;-82
2021/11/06 03:16:42;;;;;;;4.78;3.03;;;8.80;99.90;;;7.27;100.00;101056.28;4950664;28;20073;-83
2021/11/06 03:19:08;;;;;;;5.85;3.30;;;8.70;99.90;;;7.23;100.00;101028.44;4937944;28;20134;-82
2021/11/06 03:21:39;;;;;;;7.20;2.47;;;8.70;99.90;;;7.23;100.00;101074.75;4920588;28;20063;-83
2021/11/06 03:24:05;;;;;;;8.48;3.17;;;8.70;99.90;;;7.21;100.00;101066.91;4940155;28;20143;-83
2021/11/06 03:26:32;;;;;;;9.82;2.65;;;8.70;99.90;;;7.22;100.00;101080.91;4957745;28;20069;-81
2021/11/06 03:28:57;;;;;;;3.47;2.58;;;8.70;99.90;;;7.25;100.00;101075.56;4980026;28;20030;-82
2021/11/06 03:31:23;;;;;;;9.50;3.00;;;8.70;99.90;;;7.27;100.00;101081.63;4970798;28;20121;-83
2021/11/06 03:33:55;;;;;;;3.60;2.58;;;8.70;99.90;;;7.27;100.00;101082.47;4977172;28;20026;-83
2021/11/06 03:36:20;;;;;;;5.68;2.35;;;8.70;99.90;;;7.28;100.00;101072.84;4942343;28;20034;-82
2021/11/06 03:38:48;;;;;;;6.68;2.78;;;8.70;99.90;;;7.25;100.00;101078.19;4942868;28;20121;-82
2021/11/06 03:41:14;;;;;;;5.43;2.20;;;8.70;99.90;;;7.23;100.00;101074.75;4934508;28;20460;-83
2021/11/06 03:43:40;;;;;;;5.72;2.45;;;8.70;99.90;;;7.24;100.00;101082.56;4921065;28;20425;-82
2021/11/06 03:46:09;;;;;;;8.25;2.50;;;8.70;99.90;;;7.21;100.00;101076.53;4953589;28;20513;-84
2021/11/06 03:48:35;;;;;;;5.00;2.42;;;8.70;99.90;;;7.23;100.00;101087.84;4911638;28;20029;-84
2021/11/06 03:51:01;;;;;;;10.27;3.15;;;8.70;99.90;;;7.28;100.00;101088.56;4953647;28;20056;-82
2021/11/06 03:53:27;;;;;;;5.13;2.50;;;8.80;99.90;;;7.31;100.00;101089.34;4940832;28;20052;-82
2021/11/06 03:55:53;;;;;;;3.97;2.42;;;8.80;99.90;;;7.31;100.00;101093.75;4951296;28;20111;-82
2021/11/06 03:58:19;;;;;;;4.10;2.33;;;8.80;99.90;;;7.32;100.00;101090.19;4940719;28;20524;-82
2021/11/06 04:00:45;;;;;;;4.03;2.10;;;8.80;99.90;;;7.38;100.00;101101.38;4909206;28;20110;-82
2021/11/06 04:03:16;;;;;;;5.15;2.50;;;8.80;99.90;;;7.40;100.00;101099.56;4911092;28;20401;-83
2021/11/06 04:05:42;;;;;;;4.88;2.40;;;;;;;7.46;100.00;101102.94;4914275;28;20075;-82
2021/11/06 04:08:08;;;;;;;4.63;2.58;;;8.90;99.90;;;7.47;100.00;101089.78;4974986;28;20040;-82
2021/11/06 04:10:34;;;;;;;3.97;2.17;;;8.90;99.90;;;7.51;100.00;101099.28;4937604;28;20053;-83
2021/11/06 04:13:00;;;;;;;2.65;2.08;;;8.90;99.90;;;7.48;100.00;101088.88;4907002;28;20637;-83
2021/11/06 04:15:33;;;;;;;3.15;1.98;;;9.00;99.90;;;7.51;100.00;101094.03;4954143;28;20143;-81
2021/11/06 04:18:00;;;;;;;6.32;2.50;;;9.00;99.90;;;7.56;100.00;101100.03;4919621;28;20060;-83
2021/11/06 04:20:26;;;;;;;5.35;2.10;;;9.00;99.90;;;7.53;100.00;101086.97;4921776;28;20087;-83
2021/11/06 04:22:52;;;;;;;4.97;2.55;;;9.00;99.90;;;7.56;100.00;101094.78;4965460;28;20026;-83
2021/11/06 04:25:19;;;;;;;3.40;2.53;;;9.00;99.90;;;7.54;100.00;101080.88;4903791;28;20222;-82
2021/11/06 04:27:50;;;;;;;5.72;2.95;;;9.00;99.90;;;7.54;100.00;101080.88;4949350;28;20195;-83
2021/11/06 04:30:16;;;;;;;8.68;3.20;;;9.00;99.90;;;7.63;100.00;101089.38;4931653;28;20079;-83
2021/11/06 04:32:42;;;;;;;10.52;3.30;;;9.10;99.90;;;7.63;100.00;101082.34;4903214;28;20063;-82
2021/11/06 04:35:12;;;;;;;4.30;2.53;;;9.10;99.90;;;7.63;100.00;101079.75;4928821;28;20060;-82
2021/11/06 04:37:41;;;;;;;6.60;3.00;;;9.10;99.90;;;7.62;100.00;101077.16;4921399;28;20064;-84
2021/11/06 04:40:10;;;;;;;7.80;3.05;;;9.10;99.90;;;7.63;100.00;101079.75;4931265;28;20072;-83
2021/11/06 04:42:37;;;;;;;6.45;2.95;;;9.10;99.90;;;7.68;100.00;101100.56;4941446;28;20514;-84
2021/11/06 04:45:13;;;;;;;6.88;4.03;;;9.10;99.90;;;7.70;100.00;101090.91;4895349;28;20079;-84
2021/11/06 04:47:39;;;;;;;7.35;3.20;;;9.10;99.90;;;7.69;100.00;101087.44;4909384;28;20147;-83
2021/11/06 04:50:11;;;;;;;6.85;3.47;;;9.20;99.90;;;7.70;100.00;101075.19;4926593;28;20127;-82
2021/11/06 04:52:38;;;;;;;7.25;3.50;;;9.20;99.90;;;7.69;100.00;101069.09;4954537;28;20165;-83
2021/11/06 04:55:10;;;;;;;10.40;5.18;;;9.20;99.90;;;7.72;100.00;101082.09;4896650;28;20455;-84
2021/11/06 04:57:39;;;;;;;4.10;3.00;;;;;;;7.73;100.00;101078.56;4904640;28;20577;-82
2021/11/06 05:00:09;;;;;;;9.63;3.53;;;9.20;99.90;;;7.74;100.00;101084.66;4959074;28;20034;-83
2021/11/06 05:02:35;;;;;;;7.78;2.90;;;9.20;99.90;;;7.72;100.00;101076.84;4951898;28;20060;-82
2021/11/06 05:05:01;;;;;;;4.82;2.65;;;9.20;99.90;;;7.72;100.00;101084.72;4950261;28;20827;-83
2021/11/06 05:07:32;;;;;;;5.32;2.63;;;9.20;99.90;;;7.75;100.00;101079.41;4940250;28;20029;-84
2021/11/06 05:09:58;;;;;;;5.45;3.00;;;9.20;99.90;;;7.78;100.00;101081.91;4950849;28;20045;-82
2021/11/06 05:12:24;;;;;;;3.85;2.47;;;9.20;99.90;;;7.75;100.00;101089.00;4912155;28;20137;-82
2021/11/06 05:14:51;;;;;;;6.68;2.58;;;9.20;99.90;;;7.74;100.00;101079.44;4946852;28;20420;-84
2021/11/06 05:17:26;;;;;;;4.90;3.00;;;9.20;99.90;;;7.74;100.00;101085.53;4935849;28;20115;-82
2021/11/06 05:19:52;;;;;;;4.87;2.67;;;9.20;99.90;;;7.75;100.00;101071.53;4975905;28;20071;-82
2021/11/06 05:22:20;;;;;;;8.35;3.08;;;;;;;7.73;100.00;101067.22;4909659;28;20515;-83
2021/11/06 05:24:50;;;;;;;7.30;2.90;;;9.20;99.90;;;7.69;100.00;101073.44;4923927;28;20066;-84
2021/11/06 05:27:16;;;;;;;4.78;2.05;;;9.10;99.90;;;7.68;100.00;101076.97;4916082;28;21534;-83
2021/11/06 05:29:42;;;;;;;3.45;2.60;;;9.10;99.90;;;7.69;100.00;101074.31;4923244;28;20088;-83
2021/11/06 05:32:08;;;;;;;4.35;2.95;;;9.20;99.90;;;7.66;100.00;101082.25;4934742;28;20060;-83
2021/11/06 05:34:34;;;;;;;8.00;3.30;;;9.10;99.90;;;7.69;100.00;101083.94;4932510;28;20576;-82
2021/11/06 05:37:00;;;;;;;7.80;3.22;;;9.20;99.90;;;7.68;100.00;101097.94;4942097;28;20068;-82
2021/11/06 05:39:34;;;;;;;4.13;3.10;;;9.10;99.90;;;7.68;100.00;101108.44;4945599;28;20037;-82
2021/11/06 05:42:00;;;;;;;6.05;3.20;;;9.10;99.90;;;7.63;100.00;101103.31;4946136;28;20041;-82
2021/11/06 05:44:26;;;;;;;8.30;3.00;;;9.10;99.90;;;7.64;100.00;101105.03;4939076;28;20068;-82
2021/11/06 05:46:52;;;;;;;6.05;3.30;;;9.10;99.90;;;7.60;100.00;101106.91;4941799;28;20406;-82
2021/11/06 05:49:23;;;;;;;5.00;3.00;;;9.10;99.90;;;7.61;100.00;101118.22;4941595;28;20491;-82
2021/11/06 05:51:49;;;;;;;7.22;2.53;;;9.10;99.90;;;7.60;100.00;101117.38;4918560;28;20062;-83
2021/11/06 05:54:15;;;;;;;9.38;3.05;;;9.10;99.90;;;7.64;100.00;101123.38;4889213;28;20546;-81
2021/11/06 05:56:42;;;;;;;8.25;3.10;;;9.10;99.90;;;7.65;100.00;101119.88;4941320;28;20089;-83
2021/11/06 05:59:08;;;;;;;9.32;2.83;;;9.10;99.90;;;7.66;100.00;101126.81;4886735;28;20168;-82
2021/11/06 06:01:39;;;;;;;6.55;2.63;;;9.10;99.90;;;7.65;100.00;101111.16;4911840;28;20069;-83
2021/11/06 06:04:05;;;;;;;7.75;3.13;;;9.10;99.90;;;7.67;100.00;101118.06;4900760;28;20048;-84
2021/11/06 06:06:31;;;;;;;8.98;2.75;;;9.10;99.90;;;7.63;100.00;101107.72;4924486;28;20081;-82
2021/11/06 06:08:57;;;;;;;16.60;3.22;;;9.00;99.90;;;7.61;100.00;101105.13;4940102;28;20055;-82
2021/11/06 06:11:23;;;;;;;5.78;3.20;;;9.00;99.90;;;7.57;100.00;101095.63;4928200;28;20073;-82
2021/11/06 06:13:57;;;;;;;16.15;3.20;;;9.10;99.90;;;7.61;100.00;101110.38;4934526;28;20492;-84
2021/11/06 06:16:22;;;;;;;8.50;2.80;;;9.00;99.90;;;7.63;100.00;101110.34;4923815;28;20607;-83
2021/11/06 06:18:48;;;;;;;5.35;2.88;;;9.10;99.90;;;7.62;100.00;101108.59;4911007;28;20033;-85
2021/11/06 06:21:15;;;;;;;6.43;2.38;;;9.00;99.90;;;7.62;100.00;101113.84;4872478;28;20122;-83
2021/11/06 06:23:44;;;;;;;3.10;2.20;;;9.00;99.90;;;7.62;100.00;101114.69;4951528;28;20485;-83
2021/11/06 06:26:13;;;;;;;6.68;2.58;;;;;;;7.60;100.00;101106.91;4889983;28;20576;-83
2021/11/06 06:28:40;;;;;;;4.55;2.42;;;9.00;99.90;;;7.55;100.00;101103.53;4956046;28;20534;-83
2021/11/06 06:31:06;;;;;;;11.40;2.95;;;9.00;99.90;;;7.57;100.00;101122.69;4920415;28;20631;-83
2021/11/06 06:33:33;;;;;;;14.05;2.80;;;9.00;99.90;;;7.52;100.00;101118.50;4954054;28;20029;-82
2021/11/06 06:36:03;;;;;;;9.18;2.72;;;9.00;99.90;;;7.48;100.00;101124.72;4923389;28;20071;-83
2021/11/06 06:38:29;;;;;;;5.57;2.40;;;9.10;99.90;;;7.48;100.00;101128.19;4916548;28;20052;-82
2021/11/06 06:40:55;;;;;;;8.43;2.65;;;8.90;99.90;;;7.50;100.00;101130.78;4935333;28;20071;-81
2021/11/06 06:43:21;;;;;;;6.07;2.28;;;9.00;99.90;;;7.52;100.00;101140.31;4937075;28;20057;-82
2021/11/06 06:45:47;;;;;;;11.07;3.15;;;9.00;99.90;;;7.55;100.00;101142.84;4963131;28;20058;-83
2021/11/06 06:48:16;;;;;;;5.35;2.22;;;9.00;99.90;;;7.57;100.00;101134.94;4915079;28;20076;-81
2021/11/06 06:50:46;;;;;;;7.25;2.92;;;9.00;99.90;;;7.56;100.00;101136.72;4950430;28;20133;-82
2021/11/06 06:53:21;;;;;;;9.40;2.42;;;9.00;99.90;;;7.56;100.00;101141.09;4959050;28;21727;-82
2021/11/06 06:55:48;;;;;;;5.18;2.47;;;9.00;99.90;;;7.54;100.00;101133.28;4959282;28;20145;-84
2021/11/06 06:58:14;;;;;;;6.63;3.03;;;9.00;99.90;;;7.56;100.00;101130.63;4927844;28;20197;-82
2021/11/06 07:00:40;;;;;;;10.50;3.28;;;9.00;99.90;;;7.58;100.00;101134.91;4934817;28;20190;-82
2021/11/06 07:03:06;;;;;;;7.70;2.38;;;9.00;99.90;;;7.58;100.00;101129.66;4918425;28;20068;-83
2021/11/06 07:05:32;;;;;;;8.65;2.90;;;9.00;99.90;;;7.60;100.00;101140.09;4993010;28;20071;-82
2021/11/06 07:08:04;;;;;;;7.15;3.10;;;9.00;99.90;;;7.60;100.00;101138.34;4989344;28;20068;-82
2021/11/06 07:10:30;;;;;;;7.72;3.10;;;;;;;7.59;100.00;101126.13;4917737;28;20049;-83
2021/11/06 07:12:56;;;;;;;11.95;3.20;;;9.00;99.90;;;7.59;100.00;101133.13;4963633;28;20056;-84
2021/11/06 07:15:22;;;;;;;14.18;3.42;;;9.00;99.90;;;7.58;100.00;101128.78;4970748;28;20095;-82
2021/11/06 07:17:48;;;;;;;7.72;3.45;;;9.00;99.90;;;7.59;100.00;101130.53;4951597;28;20062;-82
2021/11/06 07:20:20;;;;;;;10.50;3.75;;;9.00;99.90;;;7.58;100.00;101127.03;4998045;28;20159;-82
2021/11/06 07:22:47;;;;;;;10.55;3.03;;;9.00;99.90;;;7.60;100.00;101137.47;4930450;28;20022;-81
2021/11/06 07:25:14;;;;;;;15.93;4.13;;;;;;;7.60;100.00;101134.84;4939157;28;20091;-82
2021/11/06 07:27:41;;;;;;;17.88;3.60;;;9.00;99.90;;;7.62;100.00;101134.81;4900473;28;20485;-82
2021/11/06 07:30:11;;;;;;;9.50;2.80;;;9.00;99.90;;;7.62;100.00;101150.53;4945365;28;20638;-81
2021/11/06 07:32:37;;;;;;;5.85;3.28;;;9.00;99.90;;;7.65;100.00;101163.56;4953241;28;20494;-81
2021/11/06 07:35:04;;;;;;;11.15;3.22;;;9.10;99.90;;;7.67;100.00;101149.53;4973509;28;20077;-81
2021/11/06 07:37:32;;;;;;;6.30;3.20;;;9.10;99.90;;;7.71;100.00;101166.00;4947928;28;20075;-85
2021/11/06 07:40:01;;;;;;;9.52;3.22;;;9.10;99.90;;;7.74;100.00;101160.69;4966218;28;20030;-83
2021/11/06 07:42:27;;;;;;;7.63;3.28;;;9.10;99.90;;;7.75;100.00;101168.53;4949756;28;20056;-82
2021/11/06 07:44:53;;;;;;;8.52;3.20;;;9.20;99.90;;;7.72;100.00;101160.72;4982399;28;20099;-81
2021/11/06 07:47:19;;;;;;;8.60;3.33;;;;;;;7.70;100.00;101165.16;4923071;28;20064;-81
2021/11/06 07:49:45;;;;;;;10.73;3.67;;;9.10;99.90;;;7.72;100.00;101176.44;4944815;28;20573;-81
2021/11/06 07:52:11;;;;;;;6.70;3.50;;;9.10;99.90;;;7.72;100.00;101173.81;4933523;28;20162;-82
2021/11/06 07:54:37;;;;;;;10.95;4.25;;;9.10;99.90;;;7.70;100.00;101159.06;4939615;28;20067;-82
2021/11/06 07:57:11;;;;;;;9.50;3.60;;;9.10;99.90;;;7.70;100.00;101164.28;4916378;28;20220;-81
2021/11/06 07:59:37;;;;;;;9.77;3.53;;;9.10;99.90;;;7.71;100.00;101160.75;4940946;28;20143;-82
2021/11/06 08:02:04;;;;;;;8.90;4.10;;;9.20;99.90;;;7.71;100.00;101160.75;4954371;28;20068;-82
2021/11/06 08:04:37;;;;;;;9.15;3.80;;;9.20;99.90;;;7.73;100.00;101161.56;4935271;28;20411;-81
2021/11/06 08:07:03;;;;;;;12.02;4.22;;;9.20;99.90;;;7.73;100.00;101166.81;4959161;28;20064;-81
2021/11/06 08:09:29;;;;;;;7.85;4.07;;;9.20;99.90;;;7.75;100.00;101172.88;4903410;28;20084;-82
2021/11/06 08:11:56;;;;;;;8.82;4.38;;;9.20;99.90;;;7.81;100.00;101175.34;4912757;28;20517;-81
2021/11/06 08:14:28;;;;;;;11.48;4.22;;;9.20;99.90;;;7.78;100.00;101175.44;4908514;28;20049;-81
2021/11/06 08:16:56;;;;;;;7.03;3.63;;;9.20;99.90;;;7.75;100.00;101168.53;4924118;28;20101;-81
2021/11/06 08:19:23;;;;;;;7.03;3.70;;;9.20;99.90;;;7.79;100.00;101171.91;4948657;28;20084;-81
2021/11/06 08:21:51;;;;;;;10.35;3.65;;;9.20;99.90;;;7.80;100.00;101171.00;4864349;28;20060;-81
2021/11/06 08:24:22;;;;;;;10.55;3.78;;;9.20;99.90;;;7.78;100.00;101164.94;4891749;28;20068;-81
2021/11/06 08:26:50;;;;;;;10.00;4.10;;;9.20;99.90;;;7.78;100.00;101168.41;4912116;28;20110;-82
2021/11/06 08:29:24;;;;;;;12.48;3.95;;;9.20;99.90;;;7.80;100.00;101173.63;4894741;28;20105;-80
2021/11/06 08:31:50;;;;;;;11.80;4.47;;;9.20;99.90;;;7.80;100.00;101178.88;4927319;28;20084;-79
2021/11/06 08:34:16;;;;;;;11.90;4.40;;;9.20;99.90;;;7.83;100.00;101181.41;4926870;28;20068;-79
2021/11/06 08:36:42;;;;;;;11.30;4.38;;;9.30;99.90;;;7.83;100.00;101186.63;4912381;28;20031;-81
2021/11/06 08:39:09;;;;;;;14.38;4.07;;;9.20;99.90;;;7.85;100.00;101183.97;4961505;28;20045;-80
2021/11/06 08:41:35;;;;;;;12.45;4.18;;;9.30;99.90;;;7.87;100.00;101185.66;4900874;28;20569;-78
2021/11/06 08:44:04;;;;;;;7.20;3.47;;;9.30;99.90;;;7.89;100.00;101186.47;4935797;28;20558;-79
2021/11/06 08:46:30;;;;;;;10.95;3.92;;;9.30;99.90;;;7.89;100.00;101186.47;4990439;28;20068;-79
2021/11/06 08:48:56;;;;;;;4.85;3.08;;;9.30;99.90;;;7.87;100.00;101185.66;4969696;28;20095;-78
2021/11/06 08:51:22;;;;;;;10.57;3.17;;;9.30;99.90;;;7.88;100.00;101182.13;4964226;28;20196;-79
2021/11/06 08:53:49;;;;;;;6.53;3.70;;;9.30;99.90;;;7.83;100.00;101191.88;4938830;28;20457;-79
2021/11/06 08:56:18;;;;;;;5.63;3.53;;;9.20;99.90;;;7.74;100.00;101182.50;4950302;28;20061;-80
2021/11/06 08:58:45;;;;;;;9.73;3.70;;;9.20;99.90;;;7.67;100.00;101185.38;4952469;28;20069;-79
2021/11/06 09:01:28;;;;;;;9.05;3.80;;;9.10;99.90;;;7.65;100.00;101202.88;4924581;28;20101;-81
2021/11/06 09:04:21;;;;;;;12.60;4.13;;;9.00;99.90;;;7.63;100.00;101199.44;4905969;28;20237;-81
2021/11/06 09:07:19;;;;;;;7.88;3.75;;;9.00;99.90;;;7.60;100.00;101211.72;4941972;28;20175;-81
2021/11/06 09:10:01;;;;;;;15.40;3.85;;;9.00;99.90;;;7.62;100.00;101271.94;4926875;28;20045;-80
2021/11/06 09:13:12;;;;;;;12.50;3.28;;;9.00;99.90;;;7.63;100.00;101259.72;4959916;28;20077;-80
2021/11/06 09:16:11;;;;;;;12.73;3.78;;;9.10;99.90;;;7.69;100.00;101293.63;4943010;28;20077;-80
2021/11/06 09:19:23;;;;;;;12.60;3.67;;;9.10;99.90;;;7.69;100.00;101336.44;4929658;28;20072;-81
2021/11/06 09:21:57;;;;;;;12.52;4.55;;;9.10;99.90;;;7.67;100.00;101351.34;4935058;28;20111;-80
2021/11/06 09:25:15;;;;;;;12.93;4.22;;;9.10;99.90;;;7.62;100.00;101375.94;4925929;28;20558;-80
2021/11/06 09:28:41;;;;;;;14.02;5.32;;;9.00;99.90;;;7.57;100.00;101321.88;4934156;28;20076;-80
2021/11/06 09:31:43;;;;;;;6.40;3.88;;;9.00;99.90;;;7.58;100.00;101410.09;4927721;28;20081;-80
2021/11/06 09:34:54;;;;;;;9.30;4.30;;;9.00;99.90;;;7.54;100.00;101400.56;4930141;28;20612;-80
2021/11/06 09:37:27;;;;;;;8.48;5.28;;;8.90;99.90;;;7.49;100.00;101378.84;4933035;28;20067;-80
2021/11/06 09:40:45;;;;;;;12.05;4.95;;;8.90;99.90;;;7.46;100.00;101207.75;4918191;28;20084;-80
2021/11/06 09:44:13;;;;;;;15.45;6.88;;;8.90;99.90;;;7.43;100.00;101399.06;4918170;28;20071;-81
2021/11/06 09:47:12;;;;;;;27.87;10.70;;;8.90;99.90;;;7.48;100.00;101399.84;4943783;28;20036;-80
2021/11/06 09:50:36;;;;;;;16.27;7.38;;;8.90;99.90;;;7.51;100.00;101416.34;4939672;28;20051;-81
2021/11/06 09:53:18;;;;;;;14.57;5.43;;;9.00;99.90;;;7.62;100.00;101417.88;4926836;28;20107;-80
2021/11/06 09:55:54;;;;;;;18.83;9.63;;;9.00;99.90;;;7.60;100.00;101415.28;4903228;28;20049;-81
2021/11/06 10:02:27;;;;;;;21.75;8.45;;;9.00;99.90;;;7.52;100.00;101427.72;4932025;28;20088;-80
2021/11/06 10:04:54;;;;;;;24.63;11.45;;;8.90;99.90;;;7.52;100.00;101425.09;4906601;28;20095;-79
2021/11/06 10:08:05;;;;;;;20.13;7.95;;;9.00;99.90;;;7.62;100.00;101429.22;4913775;28;20104;-83
2021/11/06 10:10:51;;;;;;;13.10;4.47;;;9.10;99.90;;;7.76;100.00;101458.59;4910666;28;20073;-81
2021/11/06 10:13:29;;;;;;;13.18;5.18;;;9.20;99.90;;;7.83;100.00;101463.69;4927448;28;20579;-82
2021/11/06 10:16:37;;;;;;;11.43;4.93;;;9.20;99.90;;;7.77;100.00;101441.09;4904704;28;20094;-82
2021/11/06 10:19:21;;;;;;;10.57;5.13;;;9.10;99.90;;;7.72;100.00;101479.69;4921442;28;20544;-83
2021/11/06 10:22:16;;;;;;;18.45;5.00;;;9.20;99.90;;;7.73;100.00;101463.03;4905915;28;20130;-81
2021/11/06 10:25:02;;;;;;;10.80;4.63;;;9.20;99.90;;;7.77;100.00;101456.81;4900406;28;20087;-82
2021/11/06 10:27:33;;;;;;;13.88;5.40;;;9.20;99.90;;;7.78;100.00;101464.66;4928837;28;20130;-80
2021/11/06 10:30:18;;;;;;;8.65;4.80;;;9.20;99.90;;;7.77;100.00;101464.69;4941687;28;20080;-81
2021/11/06 10:33:17;;;;;;;16.40;5.90;;;9.20;99.90;;;7.82;100.00;101468.09;4918505;28;20489;-83
2021/11/06 10:35:52;;;;;;;12.50;5.55;;;9.20;99.90;;;7.86;100.00;101459.25;4962688;28;20067;-82
2021/11/06 10:38:28;;;;;;;15.52;5.88;;;9.30;99.90;;;7.87;100.00;101468.84;4949005;28;20068;-82
2021/11/06 10:41:07;;;;;;;20.95;7.93;;;9.30;99.90;;;7.89;100.00;101468.81;4913834;28;20103;-81
2021/11/06 10:43:35;;;;;;;13.55;7.03;;;9.80;99.90;;;7.93;100.00;101476.56;4938756;28;20075;-81